Wetterdaten: November 2015
Datum Temp Feuchte Luftdruck Regen Wind Richtung Sonnenschein UV Solar Windben
01.11.2015 7,3 C 88 % 1029,8 hPa 0,2 l/m 0,0 km/h S 6,92 h 1,1 UV-I 207 W/m 0,0 km/h
02.11.2015 7,0 C 83 % 1025,9 hPa 0,2 l/m 0,4 km/h S-SO 7,08 h 1,0 UV-I 218 W/m 1,6 km/h
03.11.2015 5,5 C 83 % 1020,4 hPa 0,2 l/m 0,0 km/h S-SO 6,83 h 1,0 UV-I 212 W/m 0,0 km/h
04.11.2015 8,6 C 87 % 1019,7 hPa 0,0 l/m 4,8 km/h S 4,25 h 0,9 UV-I 164 W/m 5,7 km/h
05.11.2015 11,9 C 88 % 1019,6 hPa 0,2 l/m 2,0 km/h S 4,58 h 0,9 UV-I 171 W/m 8,5 km/h
06.11.2015 12,6 C 93 % 1019,4 hPa 5,0 l/m 0,6 km/h S 0,33 h 0,5 UV-I 39 W/m 4,8 km/h
07.11.2015 16,2 C 89 % 1020,8 hPa 3,2 l/m 9,5 km/h S 0,67 h 0,8 UV-I 79 W/m 22,1 km/h
08.11.2015 12,7 C 86 % 1022,9 hPa 0,0 l/m 9,8 km/h S-SO 3,33 h 0,8 UV-I 148 W/m 17,3 km/h
09.11.2015 12,4 C 84 % 1020,2 hPa 4,4 l/m 6,1 km/h SW 0,58 h 0,7 UV-I 84 W/m 21,7 km/h
10.11.2015 12,7 C 94 % 1020,8 hPa 2,6 l/m 9,8 km/h SW 0,00 h 0,6 UV-I 37 W/m 32,2 km/h
11.11.2015 10,4 C 85 % 1022,4 hPa 1,0 l/m 8,0 km/h S-SW 0,00 h 0,7 UV-I 80 W/m 18,9 km/h
12.11.2015 10,4 C 88 % 1023,8 hPa 0,0 l/m 1,5 km/h S-SW 0,00 h 0,6 UV-I 52 W/m 6,8 km/h
13.11.2015 9,4 C 82 % 1019,5 hPa 2,0 l/m 7,2 km/h S 0,08 h 0,6 UV-I 60 W/m 20,1 km/h
14.11.2015 6,6 C 91 % 1020,3 hPa 12,6 l/m 7,9 km/h S-SW 0,25 h 0,6 UV-I 78 W/m 23,3 km/h
15.11.2015 11,6 C 97 % 1009,2 hPa 33,6 l/m 16,3 km/h S-SW 0,00 h 0,0 UV-I 12 W/m 42,7 km/h
16.11.2015 10,4 C 91 % 1011,8 hPa 2,8 l/m 11,1 km/h S-SW 0,00 h 0,6 UV-I 34 W/m 24,5 km/h
17.11.2015 12,6 C 91 % 1004,3 hPa 9,8 l/m 17,4 km/h S 0,17 h 0,5 UV-I 53 W/m 35,4 km/h
18.11.2015 10,7 C 78 % 1010,6 hPa 3,8 l/m 19,0 km/h S-SW 1,33 h 0,7 UV-I 87 W/m 35,8 km/h
19.11.2015 8,5 C 90 % 1008,6 hPa 10,0 l/m 7,9 km/h SW 1,58 h 0,6 UV-I 81 W/m 25,0 km/h
20.11.2015 5,6 C 89 % 1000,8 hPa 1,0 l/m 4,0 km/h W 0,08 h 0,5 UV-I 61 W/m 18,1 km/h
21.11.2015 3,3 C 89 % 995,9 hPa 2,4 l/m 5,9 km/h S-SW 1,25 h 0,5 UV-I 90 W/m 18,1 km/h
22.11.2015 0,6 C 95 % 1005,8 hPa 1,2 l/m 8,9 km/h NW 0,17 h 0,5 UV-I 36 W/m 19,3 km/h
23.11.2015 0,3 C 94 % 1022,3 hPa 0,8 l/m 0,0 km/h N-NW 1,42 h 0,6 UV-I 89 W/m 0,0 km/h
24.11.2015 0,3 C 93 % 1013,6 hPa 5,4 l/m 10,3 km/h S 0,00 h 0,6 UV-I 75 W/m 17,3 km/h
25.11.2015 2,7 C 97 % 1005,3 hPa 9,2 l/m 0,0 km/h S 0,08 h 0,5 UV-I 32 W/m 0,0 km/h
26.11.2015 2,8 C 96 % 1017,9 hPa 1,6 l/m 0,0 km/h NW 0,83 h 0,5 UV-I 74 W/m 0,0 km/h
27.11.2015 0,9 C 93 % 1014,4 hPa 0,0 l/m 11,1 km/h S 4,67 h 0,7 UV-I 132 W/m 16,9 km/h
28.11.2015 3,8 C 87 % 1010,8 hPa 4,8 l/m 11,9 km/h S 1,00 h 0,5 UV-I 69 W/m 27,0 km/h
29.11.2015 8,5 C 89 % 1005,3 hPa 12,8 l/m 20,7 km/h S-SW 0,00 h 0,0 UV-I 24 W/m 46,3 km/h
30.11.2015 6,9 C 93 % 1011,3 hPa 21,6 l/m 10,9 km/h SW 0,00 h 0,5 UV-I 52 W/m 27,8 km/h
Min-Datum 24.11.15 03.11.15 21.11.15 26 Tage 01.11.15 - - - - 01.11.15
Min-Zeit 06:35 14:05 06:00 - 00:10 - - - - 00:10
Minimum -1,3 C 44 % 993,8 hPa - 0,0 km/h - - - - 0,0 km/h
Max-Datum 07.11.15 04.11.15 01.11.15 15.11.15 29.11.15 - 02.11.15 01.11.15 01.11.15 29.11.15
Max-Zeit 23:15 06:35 08:45 01:45 22:25 - 15:35 11:15 11:35 22:15
Maximum 17,4 C 100 % 1030,6 hPa 33,6 l/m 34,6 km/h
S-SW
- 7,00 h 1,5 UV-I 413 W/m 69,2 km/h
S-SW
Durchschnitt 7,8 C 89 % 1015,1 hPa #152,4 l/m 7,4 km/h S #47:30 h 0,7 UV-I 88 W/m 17,9 km/h

Durchschnitt Minimum Temp.5,2 C
Durchschnitt Maximum Temp.10,8 C